createdAt,value
2023-04-23T00:02:12.305Z,100.00
2023-04-23T00:04:54.346Z,100.00
2023-04-23T00:07:27.367Z,100.00
2023-04-23T00:10:01.652Z,100.00
2023-04-23T00:12:34.199Z,100.00
2023-04-23T00:15:07.761Z,100.00
2023-04-23T00:17:40.157Z,100.00
2023-04-23T00:20:12.513Z,98.79
2023-04-23T00:22:47.814Z,97.56
2023-04-23T00:25:20.164Z,98.58
2023-04-23T00:27:52.359Z,97.55
2023-04-23T00:30:24.497Z,96.99
2023-04-23T00:32:56.712Z,97.29
2023-04-23T00:35:28.920Z,97.92
2023-04-23T00:38:01.160Z,98.45
2023-04-23T00:40:33.798Z,98.24
2023-04-23T00:43:07.552Z,97.63
2023-04-23T00:45:40.062Z,97.51
2023-04-23T00:48:12.645Z,97.39
2023-04-23T00:50:44.922Z,96.95
2023-04-23T00:53:17.124Z,95.91
2023-04-23T00:55:49.262Z,96.88
2023-04-23T00:58:22.124Z,98.20
2023-04-23T01:00:54.609Z,96.45
2023-04-23T01:03:30.045Z,96.77
2023-04-23T01:06:03.446Z,95.05
2023-04-23T01:08:36.527Z,96.88
2023-04-23T01:11:14.755Z,95.96
2023-04-23T01:13:46.981Z,96.42
2023-04-23T01:16:19.239Z,95.06
2023-04-23T01:18:51.863Z,96.50
2023-04-23T01:21:26.185Z,96.29
2023-04-23T01:23:58.612Z,95.63
2023-04-23T01:26:30.933Z,95.62
2023-04-23T01:29:03.857Z,97.39
2023-04-23T01:31:37.244Z,95.97
2023-04-23T01:34:09.766Z,95.90
2023-04-23T01:36:42.670Z,95.58
2023-04-23T01:39:15.355Z,95.77
2023-04-23T01:41:48.568Z,96.82
2023-04-23T01:44:20.828Z,95.72
2023-04-23T01:46:53.752Z,96.36
2023-04-23T01:49:25.979Z,95.46
2023-04-23T01:51:58.156Z,94.98
2023-04-23T01:54:30.313Z,94.89
2023-04-23T01:57:03.176Z,95.09
2023-04-23T01:59:35.228Z,94.43
2023-04-23T02:02:14.059Z,94.41
2023-04-23T02:04:48.015Z,94.84
2023-04-23T02:07:20.442Z,93.50
2023-04-23T02:09:52.550Z,92.73
2023-04-23T02:12:26.126Z,91.70
2023-04-23T02:14:58.251Z,90.67
2023-04-23T02:17:31.256Z,90.49
2023-04-23T02:20:04.067Z,90.98
2023-04-23T02:22:43.750Z,90.95
2023-04-23T02:25:18.090Z,90.30
2023-04-23T02:27:50.830Z,90.27
2023-04-23T02:30:23.394Z,89.89
2023-04-23T02:32:55.987Z,89.98
2023-04-23T02:35:28.241Z,90.76
2023-04-23T02:38:00.434Z,90.34
2023-04-23T02:40:32.620Z,91.17
2023-04-23T02:43:05.022Z,91.21
2023-04-23T02:45:37.232Z,90.17
2023-04-23T02:48:09.461Z,89.68
2023-04-23T02:50:42.757Z,89.79
2023-04-23T02:53:15.186Z,88.72
2023-04-23T02:55:47.284Z,90.21
2023-04-23T02:58:19.733Z,89.97
2023-04-23T03:00:51.963Z,89.53
2023-04-23T03:03:26.940Z,89.82
2023-04-23T03:06:01.426Z,90.05
2023-04-23T03:08:33.674Z,90.51
2023-04-23T03:11:06.172Z,89.73
2023-04-23T03:13:38.594Z,90.21
2023-04-23T03:16:11.723Z,90.27
2023-04-23T03:18:44.029Z,90.45
2023-04-23T03:21:16.278Z,89.78
2023-04-23T03:23:48.453Z,90.01
2023-04-23T03:26:20.593Z,90.64
2023-04-23T03:28:52.805Z,91.67
2023-04-23T03:31:27.789Z,91.25
2023-04-23T03:33:59.909Z,90.98
2023-04-23T03:36:32.631Z,91.83
2023-04-23T03:39:05.188Z,91.86
2023-04-23T03:41:37.252Z,91.54
2023-04-23T03:44:12.554Z,91.61
2023-04-23T03:46:44.635Z,92.14
2023-04-23T03:49:17.457Z,92.27
2023-04-23T03:51:49.734Z,92.08
2023-04-23T03:54:23.480Z,91.88
2023-04-23T03:56:55.728Z,91.80
2023-04-23T03:59:27.921Z,89.63
2023-04-23T04:02:00.283Z,89.03
2023-04-23T04:04:33.759Z,89.67
2023-04-23T04:07:07.836Z,90.24
2023-04-23T04:09:40.031Z,89.92
2023-04-23T04:12:12.395Z,90.04
2023-04-23T04:14:44.783Z,89.97
2023-04-23T04:17:17.346Z,89.15
2023-04-23T04:19:49.444Z,89.64
2023-04-23T04:22:21.548Z,89.51
2023-04-23T04:24:54.399Z,88.99
2023-04-23T04:27:26.577Z,89.48
2023-04-23T04:29:58.864Z,89.45
2023-04-23T04:32:31.153Z,89.15
2023-04-23T04:35:04.203Z,88.78
2023-04-23T04:37:36.513Z,89.47
2023-04-23T04:40:11.786Z,89.20
2023-04-23T04:42:43.932Z,88.89
2023-04-23T04:45:17.262Z,89.23
2023-04-23T04:47:49.386Z,88.70
2023-04-23T04:50:21.663Z,89.00
2023-04-23T04:52:53.705Z,89.14
2023-04-23T04:55:26.084Z,89.55
2023-04-23T04:57:58.489Z,88.61
2023-04-23T05:00:31.022Z,88.91
2023-04-23T05:03:06.877Z,88.44
2023-04-23T05:05:39.187Z,87.96
2023-04-23T05:08:13.423Z,87.30
2023-04-23T05:10:46.067Z,86.90
2023-04-23T05:13:18.294Z,88.28
2023-04-23T05:15:50.988Z,89.59
2023-04-23T05:18:23.374Z,88.75
2023-04-23T05:20:56.422Z,89.02
2023-04-23T05:23:29.304Z,89.67
2023-04-23T05:26:03.810Z,89.58
2023-04-23T05:28:36.495Z,88.88
2023-04-23T05:31:08.963Z,88.91
2023-04-23T05:33:49.176Z,86.37
2023-04-23T05:36:23.382Z,86.21
2023-04-23T05:38:55.707Z,87.87
2023-04-23T05:41:27.846Z,87.72
2023-04-23T05:44:00.040Z,87.80
2023-04-23T05:46:32.148Z,86.83
2023-04-23T05:49:04.485Z,87.96
2023-04-23T05:51:36.753Z,87.98
2023-04-23T05:54:09.107Z,87.27
2023-04-23T05:56:41.287Z,87.67
2023-04-23T05:59:16.413Z,86.94
2023-04-23T06:01:49.856Z,87.35
2023-04-23T06:04:22.091Z,87.64
2023-04-23T06:06:54.933Z,87.74
2023-04-23T06:09:27.071Z,87.66
2023-04-23T06:11:59.651Z,87.36
2023-04-23T06:14:31.913Z,88.27
2023-04-23T06:17:04.240Z,87.98
2023-04-23T06:19:38.314Z,87.88
2023-04-23T06:22:10.658Z,87.46
2023-04-23T06:24:43.057Z,86.34
2023-04-23T06:27:15.823Z,86.78
2023-04-23T06:29:47.909Z,86.63
2023-04-23T06:32:21.002Z,87.42
2023-04-23T06:35:00.898Z,87.40
2023-04-23T06:37:33.873Z,86.58
2023-04-23T06:40:07.395Z,86.90
2023-04-23T06:42:39.598Z,86.90
2023-04-23T06:45:12.283Z,86.73
2023-04-23T06:47:44.574Z,87.16
2023-04-23T06:50:17.021Z,85.51
2023-04-23T06:52:49.583Z,84.85
2023-04-23T06:55:26.444Z,84.29
2023-04-23T06:58:02.177Z,85.15
2023-04-23T07:00:34.612Z,83.97
2023-04-23T07:03:07.074Z,84.87
2023-04-23T07:05:42.724Z,84.10
2023-04-23T07:08:14.990Z,82.68
2023-04-23T07:10:47.575Z,83.44
2023-04-23T07:13:19.932Z,83.81
2023-04-23T07:15:52.234Z,85.30
2023-04-23T07:18:24.317Z,85.12
2023-04-23T07:20:59.508Z,84.26
2023-04-23T07:23:32.839Z,83.90
2023-04-23T07:26:05.307Z,83.33
2023-04-23T07:28:39.596Z,83.38
2023-04-23T07:31:12.160Z,81.37
2023-04-23T07:33:44.471Z,82.51
2023-04-23T07:36:16.779Z,81.04
2023-04-23T07:38:48.942Z,81.24
2023-04-23T07:41:21.341Z,79.40
2023-04-23T07:43:53.648Z,77.53
2023-04-23T07:46:26.250Z,75.21
2023-04-23T07:48:58.471Z,72.63
2023-04-23T07:51:32.145Z,67.83
2023-04-23T07:54:04.636Z,68.26
2023-04-23T07:56:37.278Z,64.59
2023-04-23T07:59:10.151Z,61.44
2023-04-23T08:01:42.468Z,58.16
2023-04-23T08:04:18.317Z,55.70
2023-04-23T08:06:50.810Z,51.71
2023-04-23T08:09:23.066Z,50.39
2023-04-23T08:11:55.615Z,51.00
2023-04-23T08:14:27.758Z,47.53
2023-04-23T08:16:59.899Z,46.24
2023-04-23T08:19:35.715Z,45.00
2023-04-23T08:22:08.030Z,42.48
2023-04-23T08:24:40.439Z,43.69
2023-04-23T08:27:12.905Z,43.15
2023-04-23T08:29:45.109Z,40.34
2023-04-23T08:32:17.427Z,39.96
2023-04-23T08:34:49.811Z,37.87
2023-04-23T08:37:30.354Z,39.25
2023-04-23T08:40:05.399Z,38.05
2023-04-23T08:43:35.703Z,39.58
2023-04-23T08:46:12.626Z,38.19
2023-04-23T08:48:52.640Z,36.95
2023-04-23T08:51:26.937Z,35.21
2023-04-23T08:54:04.330Z,35.31
2023-04-23T08:56:37.714Z,32.44
2023-04-23T08:59:10.559Z,32.84
2023-04-23T09:01:45.062Z,32.64
2023-04-23T09:04:17.400Z,31.87
2023-04-23T09:06:50.676Z,31.36
2023-04-23T09:09:24.077Z,30.85
2023-04-23T09:11:58.067Z,30.11
2023-04-23T09:14:30.428Z,28.51
2023-04-23T09:17:05.868Z,27.64
2023-04-23T09:19:40.500Z,28.31
2023-04-23T09:22:13.369Z,27.24
2023-04-23T09:24:45.599Z,26.63
2023-04-23T09:27:26.055Z,26.21
2023-04-23T09:29:59.867Z,27.75
2023-04-23T09:32:36.854Z,26.52
2023-04-23T09:35:14.121Z,25.54
2023-04-23T09:37:52.103Z,26.64
2023-04-23T09:40:28.458Z,26.66
2023-04-23T09:43:05.254Z,27.38
2023-04-23T09:45:38.200Z,27.54
2023-04-23T09:48:10.747Z,27.27
2023-04-23T09:50:43.943Z,26.88
2023-04-23T09:53:16.203Z,26.03
2023-04-23T09:55:48.380Z,26.11
2023-04-23T09:58:27.620Z,25.02
2023-04-23T10:01:10.895Z,26.25
2023-04-23T10:03:44.495Z,27.08
2023-04-23T10:06:25.476Z,26.20
2023-04-23T10:09:10.291Z,26.47
2023-04-23T10:11:43.370Z,26.61
2023-04-23T10:14:15.830Z,26.89
2023-04-23T10:16:54.501Z,26.23
2023-04-23T10:19:29.213Z,27.31
2023-04-23T10:22:18.623Z,28.79
2023-04-23T10:24:59.024Z,28.44
2023-04-23T10:27:40.390Z,29.88
2023-04-23T10:30:17.456Z,27.46
2023-04-23T10:32:51.105Z,26.97
2023-04-23T10:35:23.593Z,27.48
2023-04-23T10:37:56.324Z,27.47
2023-04-23T10:40:33.016Z,27.90
2023-04-23T10:43:08.124Z,26.55
2023-04-23T10:45:44.507Z,25.86
2023-04-23T10:48:17.270Z,25.39
2023-04-23T10:51:14.607Z,24.31
2023-04-23T10:53:52.686Z,25.18
2023-04-23T10:56:28.377Z,26.39
2023-04-23T10:59:31.135Z,28.17
2023-04-23T11:02:13.987Z,26.76
2023-04-23T11:04:57.971Z,26.93
2023-04-23T11:07:34.466Z,27.99
2023-04-23T11:10:16.259Z,29.61
2023-04-23T11:12:48.566Z,30.00
2023-04-23T11:15:21.209Z,30.12
2023-04-23T11:17:54.498Z,28.36
2023-04-23T11:20:30.848Z,26.07
2023-04-23T11:23:12.601Z,26.56
2023-04-23T11:26:25.192Z,26.22
2023-04-23T11:32:14.527Z,24.21
2023-04-23T11:34:54.010Z,24.71
2023-04-23T11:37:30.504Z,26.61
2023-04-23T13:00:33.451Z,42.38
2023-04-23T13:20:59.162Z,33.60
2023-04-23T13:39:09.831Z,30.77
2023-04-23T13:41:53.851Z,32.56
2023-04-23T13:49:06.202Z,34.98
2023-04-23T13:51:38.583Z,35.55
2023-04-23T13:57:10.486Z,34.71
2023-04-23T13:59:54.424Z,34.53
2023-04-23T14:02:27.197Z,35.29
2023-04-23T14:05:04.139Z,34.87
2023-04-23T14:07:36.901Z,34.56
2023-04-23T14:10:12.914Z,36.03
2023-04-23T14:12:46.945Z,36.21
2023-04-23T14:15:19.879Z,36.28
2023-04-23T14:17:56.200Z,36.57
2023-04-23T14:20:28.862Z,38.04
2023-04-23T14:23:25.600Z,38.02
2023-04-23T14:26:09.495Z,37.06
2023-04-23T14:28:46.482Z,37.56
2023-04-23T14:31:19.026Z,39.26
2023-04-23T14:33:51.270Z,38.84
2023-04-23T14:36:30.978Z,38.93
2023-04-23T14:39:05.734Z,39.00
2023-04-23T14:41:38.150Z,39.82
2023-04-23T14:44:10.526Z,39.84
2023-04-23T14:46:43.500Z,39.85
2023-04-23T14:49:15.820Z,40.23
2023-04-23T14:51:56.256Z,40.73
2023-04-23T14:54:28.457Z,41.21
2023-04-23T14:57:00.732Z,42.29
2023-04-23T14:59:32.889Z,50.45
2023-04-23T15:02:05.207Z,61.41
2023-04-23T15:05:33.003Z,64.55
2023-04-23T15:08:05.221Z,69.38
2023-04-23T15:10:38.967Z,78.86
2023-04-23T15:13:51.260Z,91.09
2023-04-23T15:19:11.645Z,100.00
2023-04-23T15:21:54.071Z,100.00
2023-04-23T15:24:26.240Z,100.00
2023-04-23T15:27:02.123Z,100.00
2023-04-23T15:29:34.233Z,100.00
2023-04-23T15:32:06.642Z,100.00
2023-04-23T15:34:40.923Z,100.00
2023-04-23T15:37:13.714Z,100.00
2023-04-23T15:39:45.922Z,100.00
2023-04-23T15:42:23.725Z,100.00
2023-04-23T15:44:57.280Z,100.00
2023-04-23T15:47:31.045Z,100.00
2023-04-23T15:50:12.923Z,100.00
2023-04-23T15:52:45.543Z,100.00
2023-04-23T15:55:18.885Z,100.00
2023-04-23T15:57:51.334Z,100.00
2023-04-23T16:00:23.726Z,100.00
2023-04-23T16:02:56.576Z,100.00
2023-04-23T16:05:30.600Z,100.00
2023-04-23T16:08:03.785Z,100.00
2023-04-23T16:10:37.988Z,100.00
2023-04-23T16:13:10.497Z,100.00
2023-04-23T16:15:45.879Z,100.00
2023-04-23T16:18:18.034Z,100.00
2023-04-23T16:20:50.356Z,100.00
2023-04-23T16:23:22.701Z,100.00
2023-04-23T16:25:55.716Z,100.00
2023-04-23T16:28:27.899Z,99.34
2023-04-23T16:31:00.289Z,97.85
2023-04-23T16:33:32.575Z,99.01
2023-04-23T16:36:05.194Z,98.93
2023-04-23T16:38:37.594Z,98.45
2023-04-23T16:41:09.992Z,100.00
2023-04-23T16:43:42.448Z,100.00
2023-04-23T16:49:23.088Z,100.00
2023-04-23T16:51:57.066Z,100.00
2023-04-23T16:55:35.812Z,100.00
2023-04-23T17:02:36.861Z,96.42
2023-04-23T17:05:33.443Z,93.20
2023-04-23T17:08:05.753Z,93.29
2023-04-23T17:10:37.926Z,96.39
2023-04-23T17:13:10.377Z,100.00
2023-04-23T17:15:43.414Z,100.00
2023-04-23T17:18:33.588Z,100.00
2023-04-23T17:21:05.983Z,100.00
2023-04-23T17:23:38.248Z,100.00
2023-04-23T17:26:11.271Z,100.00
2023-04-23T17:28:43.605Z,100.00
2023-04-23T17:31:16.549Z,100.00
2023-04-23T17:33:50.529Z,100.00
2023-04-23T17:36:25.676Z,100.00
2023-04-23T17:38:57.978Z,100.00
2023-04-23T17:41:32.553Z,100.00
2023-04-23T17:44:04.798Z,100.00
2023-04-23T17:46:37.137Z,100.00
2023-04-23T17:49:10.763Z,100.00
2023-04-23T17:51:42.978Z,100.00
2023-04-23T17:54:15.662Z,100.00
2023-04-23T17:56:48.311Z,100.00
2023-04-23T17:59:20.683Z,100.00
2023-04-23T18:01:53.384Z,100.00
2023-04-23T18:04:25.592Z,100.00
2023-04-23T18:06:57.812Z,100.00
2023-04-23T18:09:29.945Z,100.00
2023-04-23T18:12:04.113Z,100.00
2023-04-23T18:14:36.295Z,100.00
2023-04-23T18:17:09.232Z,100.00
2023-04-23T18:19:41.691Z,100.00
2023-04-23T18:22:17.431Z,100.00
2023-04-23T18:24:50.864Z,100.00
2023-04-23T18:27:23.075Z,100.00
2023-04-23T18:29:58.004Z,100.00
2023-04-23T18:32:50.723Z,100.00
2023-04-23T18:35:27.667Z,100.00
2023-04-23T18:42:03.256Z,100.00
2023-04-23T18:44:37.253Z,100.00
2023-04-23T18:47:09.613Z,100.00
2023-04-23T18:49:56.327Z,100.00
2023-04-23T18:52:32.946Z,100.00
2023-04-23T18:55:05.583Z,100.00
2023-04-23T18:57:38.120Z,100.00
2023-04-23T19:00:11.447Z,100.00
2023-04-23T19:02:44.687Z,100.00
2023-04-23T19:05:29.289Z,100.00
2023-04-23T19:08:03.607Z,100.00
2023-04-23T19:10:37.505Z,100.00
2023-04-23T19:13:10.974Z,100.00
2023-04-23T19:15:43.228Z,100.00
2023-04-23T19:18:15.584Z,100.00
2023-04-23T19:20:47.844Z,100.00
2023-04-23T19:23:20.747Z,100.00
2023-04-23T19:25:53.164Z,100.00
2023-04-23T19:28:25.596Z,100.00
2023-04-23T19:30:58.075Z,100.00
2023-04-23T19:33:31.512Z,100.00
2023-04-23T19:36:03.764Z,100.00
2023-04-23T19:38:35.947Z,100.00
2023-04-23T19:41:08.586Z,100.00
2023-04-23T19:43:41.585Z,100.00
2023-04-23T19:46:14.879Z,100.00
2023-04-23T19:48:47.307Z,100.00
2023-04-23T19:51:21.367Z,100.00
2023-04-23T19:53:55.942Z,100.00
2023-04-23T19:56:43.968Z,100.00
2023-04-23T19:59:22.270Z,100.00
2023-04-23T20:05:00.852Z,100.00
2023-04-23T20:14:01.360Z,100.00
2023-04-23T20:17:37.967Z,100.00
2023-04-23T20:20:20.356Z,100.00
2023-04-23T20:24:02.768Z,100.00
2023-04-23T20:26:37.139Z,100.00
2023-04-23T20:29:38.228Z,100.00
2023-04-23T20:32:14.456Z,100.00
2023-04-23T20:34:52.327Z,100.00
2023-04-23T20:37:32.172Z,100.00
2023-04-23T20:40:06.298Z,100.00
2023-04-23T20:42:39.481Z,100.00
2023-04-23T20:45:13.454Z,100.00
2023-04-23T20:47:47.216Z,100.00
2023-04-23T20:50:19.787Z,100.00
2023-04-23T20:52:52.071Z,100.00
2023-04-23T20:55:24.290Z,100.00
2023-04-23T20:57:56.547Z,100.00
2023-04-23T21:00:29.543Z,100.00
2023-04-23T21:03:01.946Z,100.00
2023-04-23T21:05:34.463Z,100.00
2023-04-23T21:08:08.249Z,100.00
2023-04-23T21:10:41.511Z,100.00
2023-04-23T21:13:13.689Z,100.00
2023-04-23T21:15:45.989Z,100.00
2023-04-23T21:18:19.135Z,100.00
2023-04-23T21:20:51.778Z,100.00
2023-04-23T21:23:24.090Z,100.00
2023-04-23T21:25:57.255Z,100.00
2023-04-23T21:28:29.683Z,100.00
2023-04-23T21:31:21.432Z,100.00
2023-04-23T21:33:56.961Z,100.00
2023-04-23T21:36:29.605Z,100.00
2023-04-23T21:39:02.472Z,100.00
2023-04-23T21:41:35.373Z,100.00
2023-04-23T21:44:08.898Z,100.00
2023-04-23T21:46:43.511Z,100.00
2023-04-23T21:49:17.690Z,100.00
2023-04-23T21:51:50.379Z,100.00
2023-04-23T21:54:25.401Z,100.00
2023-04-23T21:56:57.706Z,100.00
2023-04-23T21:59:30.161Z,100.00
2023-04-23T22:02:02.483Z,100.00
2023-04-23T22:04:35.077Z,100.00
2023-04-23T22:07:12.599Z,100.00
2023-04-23T22:09:45.138Z,100.00
2023-04-23T22:12:17.534Z,100.00
2023-04-23T22:14:49.894Z,100.00
2023-04-23T22:17:22.200Z,100.00
2023-04-23T22:19:55.069Z,100.00
2023-04-23T22:22:27.266Z,100.00
2023-04-23T22:24:59.881Z,100.00
2023-04-23T22:27:34.657Z,100.00
2023-04-23T22:30:10.548Z,100.00
2023-04-23T22:32:42.876Z,100.00
2023-04-23T22:35:15.257Z,100.00
2023-04-23T22:37:47.505Z,100.00
2023-04-23T22:40:20.198Z,100.00
2023-04-23T22:42:52.456Z,100.00
2023-04-23T22:45:27.047Z,100.00
2023-04-23T22:47:59.388Z,100.00
2023-04-23T22:50:31.654Z,100.00
2023-04-23T22:53:04.275Z,100.00
2023-04-23T22:55:36.453Z,100.00
2023-04-23T22:58:08.972Z,100.00
2023-04-23T23:00:41.934Z,100.00
2023-04-23T23:03:14.422Z,100.00
2023-04-23T23:05:46.656Z,100.00
2023-04-23T23:08:19.105Z,100.00
2023-04-23T23:10:54.248Z,100.00
2023-04-23T23:13:26.403Z,100.00
2023-04-23T23:16:02.539Z,100.00
2023-04-23T23:18:34.651Z,100.00
2023-04-23T23:21:07.061Z,100.00
2023-04-23T23:23:39.424Z,100.00
2023-04-23T23:26:11.579Z,100.00
2023-04-23T23:28:43.694Z,100.00
2023-04-23T23:31:15.968Z,100.00
2023-04-23T23:33:48.183Z,100.00
2023-04-23T23:36:23.159Z,100.00
2023-04-23T23:38:55.506Z,100.00
2023-04-23T23:41:27.648Z,100.00
2023-04-23T23:43:59.837Z,100.00
2023-04-23T23:46:32.095Z,100.00
2023-04-23T23:49:04.303Z,100.00
2023-04-23T23:51:36.504Z,100.00
2023-04-23T23:54:08.846Z,100.00
2023-04-23T23:56:41.166Z,100.00
2023-04-23T23:59:13.581Z,100.00
